Time,TemperatureF,DewpointF,PressureIn,WindDirection,WindDirectionDegrees,WindSpeedMPH,WindSpeedGustMPH,Humidity,HourlyPrecipIn,Conditions,Clouds,dailyrainin,SoftwareType,DateUTC
2013-05-14 00:00:00,45.0,40.0,29.14,North,-999,-999.0,-999.0,84,-99.99,,,-99.99,,2013-05-13 23:00:00,
2013-05-14 00:33:00,45.0,40.0,29.14,North,-999,-999.0,-999.0,84,-99.99,,,-99.99,,2013-05-13 23:33:00,
2013-05-14 00:42:00,45.0,40.0,29.14,North,-999,-999.0,-999.0,84,-99.99,,,-99.99,,2013-05-13 23:42:00,
2013-05-14 00:53:00,45.0,40.0,29.14,North,-999,-999.0,-999.0,84,-99.99,,,-99.99,,2013-05-13 23:53:00,
2013-05-14 01:00:00,45.0,41.0,29.13,North,-999,-999.0,-999.0,86,-99.99,,,-99.99,,2013-05-14 00:00:00,
2013-05-14 01:41:00,45.0,41.0,29.13,North,-999,-999.0,-999.0,86,-99.99,,,-99.99,,2013-05-14 00:41:00,
2013-05-14 01:51:00,45.0,41.0,29.13,North,-999,-999.0,-999.0,86,-99.99,,,-99.99,,2013-05-14 00:51:00,
2013-05-14 02:00:00,46.0,40.0,29.13,North,-999,-999.0,-999.0,79,-99.99,,,-99.99,,2013-05-14 01:00:00,
2013-05-14 02:43:00,46.0,40.0,29.13,North,-999,-999.0,-999.0,79,-99.99,,,-99.99,,2013-05-14 01:43:00,
2013-05-14 02:52:00,46.0,40.0,29.13,North,-999,-999.0,-999.0,79,-99.99,,,-99.99,,2013-05-14 01:52:00,
2013-05-14 03:00:00,45.0,39.0,29.15,North,-999,-999.0,-999.0,77,-99.99,,,-99.99,,2013-05-14 02:00:00,
2013-05-14 03:42:00,45.0,39.0,29.15,North,-999,-999.0,-999.0,77,-99.99,,,-99.99,,2013-05-14 02:42:00,
2013-05-14 03:51:00,45.0,39.0,29.15,North,-999,-999.0,-999.0,77,-99.99,,,-99.99,,2013-05-14 02:51:00,
2013-05-14 04:00:00,45.0,39.0,29.18,North,-999,-999.0,-999.0,76,-99.99,,,-99.99,,2013-05-14 03:00:00,
2013-05-14 04:42:00,45.0,39.0,29.18,North,-999,-999.0,-999.0,76,-99.99,,,-99.99,,2013-05-14 03:42:00,
2013-05-14 04:52:00,45.0,39.0,29.18,North,-999,-999.0,-999.0,76,-99.99,,,-99.99,,2013-05-14 03:52:00,
2013-05-14 05:00:00,45.0,39.0,29.19,North,-999,-999.0,-999.0,79,-99.99,,,-99.99,,2013-05-14 04:00:00,
2013-05-14 05:42:00,45.0,39.0,29.19,North,-999,-999.0,-999.0,79,-99.99,,,-99.99,,2013-05-14 04:42:00,
2013-05-14 05:52:00,45.0,39.0,29.19,North,-999,-999.0,-999.0,79,-99.99,,,-99.99,,2013-05-14 04:52:00,
2013-05-14 06:00:00,45.0,40.0,29.19,North,-999,-999.0,-999.0,81,-99.99,,,-99.99,,2013-05-14 05:00:00,
2013-05-14 06:42:00,45.0,40.0,29.19,North,-999,-999.0,-999.0,81,-99.99,,,-99.99,,2013-05-14 05:42:00,
2013-05-14 06:52:00,45.0,40.0,29.19,North,-999,-999.0,-999.0,81,-99.99,,,-99.99,,2013-05-14 05:52:00,
2013-05-14 07:00:00,44.0,38.0,29.20,North,-999,-999.0,-999.0,81,-99.99,,,-99.99,,2013-05-14 06:00:00,
2013-05-14 07:42:00,44.0,38.0,29.20,North,-999,-999.0,-999.0,81,-99.99,,,-99.99,,2013-05-14 06:42:00,
2013-05-14 07:51:00,44.0,38.0,29.20,North,-999,-999.0,-999.0,81,-99.99,,,-99.99,,2013-05-14 06:51:00,
2013-05-14 08:00:00,45.0,40.0,29.21,North,-999,-999.0,-999.0,82,-99.99,,,-99.99,,2013-05-14 07:00:00,
2013-05-14 08:41:00,45.0,40.0,29.21,North,-999,-999.0,-999.0,82,-99.99,,,-99.99,,2013-05-14 07:41:00,
2013-05-14 08:52:00,45.0,40.0,29.21,North,-999,-999.0,-999.0,82,-99.99,,,-99.99,,2013-05-14 07:52:00,
2013-05-14 09:00:00,44.0,38.0,29.20,North,-999,-999.0,-999.0,81,-99.99,,,-99.99,,2013-05-14 08:00:00,
2013-05-14 09:41:00,44.0,38.0,29.20,North,-999,-999.0,-999.0,81,-99.99,,,-99.99,,2013-05-14 08:41:00,
2013-05-14 09:51:00,44.0,38.0,29.20,North,-999,-999.0,-999.0,81,-99.99,,,-99.99,,2013-05-14 08:51:00,
2013-05-14 10:00:00,45.0,41.0,29.21,North,-999,-999.0,-999.0,82,-99.99,,,-99.99,,2013-05-14 09:00:00,
2013-05-14 10:44:00,45.0,41.0,29.21,North,-999,-999.0,-999.0,82,-99.99,,,-99.99,,2013-05-14 09:44:00,
2013-05-14 10:54:00,45.0,41.0,29.21,North,-999,-999.0,-999.0,82,-99.99,,,-99.99,,2013-05-14 09:54:00,
2013-05-14 11:00:00,45.0,41.0,29.23,North,-999,-999.0,-999.0,84,-99.99,,,-99.99,,2013-05-14 10:00:00,
2013-05-14 11:42:00,45.0,41.0,29.23,North,-999,-999.0,-999.0,84,-99.99,,,-99.99,,2013-05-14 10:42:00,
2013-05-14 11:52:00,45.0,41.0,29.23,North,-999,-999.0,-999.0,84,-99.99,,,-99.99,,2013-05-14 10:52:00,
2013-05-14 12:00:00,49.0,44.0,29.23,North,-999,-999.0,-999.0,84,-99.99,,,-99.99,,2013-05-14 11:00:00,
2013-05-14 12:43:00,49.0,44.0,29.23,North,-999,-999.0,-999.0,84,-99.99,,,-99.99,,2013-05-14 11:43:00,
2013-05-14 12:51:00,49.0,44.0,29.23,North,-999,-999.0,-999.0,84,-99.99,,,-99.99,,2013-05-14 11:51:00,
2013-05-14 13:00:00,44.0,40.0,29.26,North,-999,-999.0,-999.0,84,-99.99,,,-99.99,,2013-05-14 12:00:00,
2013-05-14 13:41:00,44.0,40.0,29.26,North,-999,-999.0,-999.0,84,-99.99,,,-99.99,,2013-05-14 12:41:00,
2013-05-14 13:51:00,44.0,40.0,29.26,North,-999,-999.0,-999.0,84,-99.99,,,-99.99,,2013-05-14 12:51:00,
2013-05-14 14:00:00,45.0,42.0,29.27,North,-999,-999.0,-999.0,87,-99.99,,,-99.99,,2013-05-14 13:00:00,
2013-05-14 14:41:00,45.0,42.0,29.27,North,-999,-999.0,-999.0,87,-99.99,,,-99.99,,2013-05-14 13:41:00,
2013-05-14 14:51:00,45.0,42.0,29.27,North,-999,-999.0,-999.0,87,-99.99,,,-99.99,,2013-05-14 13:51:00,
2013-05-14 15:00:00,46.0,43.0,29.28,North,-999,-999.0,-999.0,88,-99.99,,,-99.99,,2013-05-14 14:00:00,
2013-05-14 15:41:00,46.0,43.0,29.28,North,-999,-999.0,-999.0,88,-99.99,,,-99.99,,2013-05-14 14:41:00,
2013-05-14 15:52:00,46.0,43.0,29.28,North,-999,-999.0,-999.0,88,-99.99,,,-99.99,,2013-05-14 14:52:00,
2013-05-14 16:00:00,46.0,42.0,29.31,North,-999,-999.0,-999.0,87,-99.99,,,-99.99,,2013-05-14 15:00:00,
2013-05-14 16:42:00,46.0,42.0,29.31,North,-999,-999.0,-999.0,87,-99.99,,,-99.99,,2013-05-14 15:42:00,
2013-05-14 16:52:00,46.0,42.0,29.31,North,-999,-999.0,-999.0,87,-99.99,,,-99.99,,2013-05-14 15:52:00,
2013-05-14 17:00:00,48.0,44.0,29.33,North,-999,-999.0,-999.0,84,-99.99,,,-99.99,,2013-05-14 16:00:00,
2013-05-14 17:43:00,48.0,44.0,29.33,North,-999,-999.0,-999.0,84,-99.99,,,-99.99,,2013-05-14 16:43:00,
2013-05-14 17:53:00,48.0,44.0,29.33,North,-999,-999.0,-999.0,84,-99.99,,,-99.99,,2013-05-14 16:53:00,
2013-05-14 18:00:00,47.0,43.0,29.34,North,-999,-999.0,-999.0,86,-99.99,,,-99.99,,2013-05-14 17:00:00,
2013-05-14 18:43:00,47.0,43.0,29.34,North,-999,-999.0,-999.0,86,-99.99,,,-99.99,,2013-05-14 17:43:00,
2013-05-14 18:52:00,47.0,43.0,29.34,North,-999,-999.0,-999.0,86,-99.99,,,-99.99,,2013-05-14 17:52:00,
2013-05-14 19:00:00,46.0,43.0,29.36,North,-999,-999.0,-999.0,87,-99.99,,,-99.99,,2013-05-14 18:00:00,
2013-05-14 19:42:00,46.0,43.0,29.36,North,-999,-999.0,-999.0,87,-99.99,,,-99.99,,2013-05-14 18:42:00,
2013-05-14 19:52:00,46.0,43.0,29.36,North,-999,-999.0,-999.0,87,-99.99,,,-99.99,,2013-05-14 18:52:00,
2013-05-14 20:00:00,45.0,42.0,29.39,North,-999,-999.0,-999.0,88,-99.99,,,-99.99,,2013-05-14 19:00:00,
2013-05-14 20:41:00,45.0,42.0,29.39,North,-999,-999.0,-999.0,88,-99.99,,,-99.99,,2013-05-14 19:41:00,
2013-05-14 20:52:00,45.0,42.0,29.39,North,-999,-999.0,-999.0,88,-99.99,,,-99.99,,2013-05-14 19:52:00,
2013-05-14 21:00:00,45.0,41.0,29.41,North,-999,-999.0,-999.0,85,-99.99,,,-99.99,,2013-05-14 20:00:00,
2013-05-14 21:32:00,45.0,41.0,29.41,North,-999,-999.0,-999.0,85,-99.99,,,-99.99,,2013-05-14 20:32:00,
2013-05-14 21:43:00,45.0,41.0,29.41,North,-999,-999.0,-999.0,85,-99.99,,,-99.99,,2013-05-14 20:43:00,
2013-05-14 21:51:00,45.0,41.0,29.41,North,-999,-999.0,-999.0,85,-99.99,,,-99.99,,2013-05-14 20:51:00,
2013-05-14 22:00:00,45.0,39.0,29.43,North,-999,-999.0,-999.0,80,-99.99,,,-99.99,,2013-05-14 21:00:00,
2013-05-14 22:42:00,45.0,39.0,29.43,North,-999,-999.0,-999.0,80,-99.99,,,-99.99,,2013-05-14 21:42:00,
2013-05-14 22:52:00,45.0,39.0,29.43,North,-999,-999.0,-999.0,80,-99.99,,,-99.99,,2013-05-14 21:52:00,
2013-05-14 23:00:00,44.0,38.0,29.45,North,-999,-999.0,-999.0,80,-99.99,,,-99.99,,2013-05-14 22:00:00,
2013-05-14 23:44:00,44.0,38.0,29.45,North,-999,-999.0,-999.0,80,-99.99,,,-99.99,,2013-05-14 22:44:00,
2013-05-14 23:54:00,44.0,38.0,29.45,North,-999,-999.0,-999.0,80,-99.99,,,-99.99,,2013-05-14 22:54:00,